Time;durP1;ratioP1;P1;durP2;ratioP2;P2;SDS_P1;SDS_P2;PMS_P1;PMS_P2;Temp;Humidity;BMP_temperature;BMP_pressure;BME280_temperature;BME280_humidity;BME280_pressure;Samples;Min_cycle;Max_cycle;Signal;HPM_P1;HPM_P2
2022/09/10 00:00:13;;;;;;;8.70;3.65;;;;;;;16.40;74.36;100844.69;6307080;22;20011;-58
2022/09/10 00:02:38;;;;;;;9.25;3.83;;;;;;;16.39;74.86;100844.97;6307326;22;20319;-59
2022/09/10 00:05:04;;;;;;;6.97;3.58;;;;;;;16.41;74.73;100851.13;6305318;22;20030;-59
2022/09/10 00:07:30;;;;;;;9.10;4.03;;;;;;;16.41;74.79;100842.72;6307925;22;20006;-59
2022/09/10 00:09:55;;;;;;;8.30;3.70;;;;;;;16.34;75.05;100840.22;6305631;22;19995;-58
2022/09/10 00:12:20;;;;;;;9.05;3.83;;;;;;;16.37;74.75;100839.66;6306865;22;20003;-58
2022/09/10 00:14:46;;;;;;;10.50;3.70;;;;;;;16.40;74.88;100830.66;6307238;22;20003;-59
2022/09/10 00:17:11;;;;;;;10.20;4.22;;;;;;;16.36;75.10;100828.75;6306076;22;20010;-61
2022/09/10 00:19:36;;;;;;;7.72;3.90;;;;;;;16.38;74.82;100824.50;6306150;22;20011;-59
2022/09/10 00:22:02;;;;;;;7.95;3.78;;;;;;;16.39;74.96;100828.19;6304908;22;19999;-59
2022/09/10 00:24:27;;;;;;;9.23;3.40;;;;;;;16.43;74.78;100830.09;6304304;22;20011;-59
2022/09/10 00:26:53;;;;;;;9.98;3.85;;;;;;;16.39;74.87;100829.00;6305018;22;20013;-59
2022/09/10 00:29:18;;;;;;;10.23;3.85;;;;;;;16.33;74.98;100824.56;6304462;22;20004;-59
2022/09/10 00:31:46;;;;;;;9.70;3.33;;;;;;;16.37;75.15;100836.03;6303499;22;20010;-59
2022/09/10 00:34:13;;;;;;;6.80;4.07;;;;;;;16.34;75.16;100836.59;6305876;22;20084;-58
2022/09/10 00:36:41;;;;;;;7.35;3.70;;;;;;;16.39;74.66;100830.97;6304735;22;20007;-58
2022/09/10 00:39:11;;;;;;;7.15;3.60;;;;;;;16.34;75.15;100834.63;6305673;22;20014;-58
2022/09/10 00:41:38;;;;;;;13.45;3.70;;;;;;;16.38;75.00;100837.69;6307129;22;20398;-58
2022/09/10 00:44:25;;;;;;;11.45;3.90;;;;;;;16.35;75.08;100839.13;6306089;22;20332;-58
2022/09/10 00:46:52;;;;;;;9.48;4.50;;;;;;;16.37;75.16;100836.84;6285294;22;20046;-58
2022/09/10 00:49:22;;;;;;;8.98;3.92;;;;;;;16.32;75.29;100830.47;6305406;22;20386;-59
2022/09/10 00:51:51;;;;;;;8.40;4.20;;;;;;;16.30;75.42;100829.91;6305291;22;20029;-58
2022/09/10 00:54:20;;;;;;;11.05;3.92;;;;;;;16.35;75.09;100827.91;6307461;22;20065;-59
2022/09/10 00:56:46;;;;;;;12.48;4.70;;;;;;;16.30;75.58;100829.91;6307106;22;20427;-58
2022/09/10 00:59:15;;;;;;;8.65;4.15;;;;;;;16.36;75.43;100832.38;6306336;22;20003;-58
2022/09/10 01:01:41;;;;;;;7.25;3.85;;;;;;;16.36;75.17;100832.38;6305562;22;20007;-59
2022/09/10 01:04:09;;;;;;;9.43;4.22;;;;;;;16.31;75.55;100835.25;6305850;22;20010;-58
2022/09/10 01:06:35;;;;;;;8.85;4.57;;;;;;;16.34;75.57;100843.03;6305615;22;20018;-58
2022/09/10 01:09:01;;;;;;;10.15;4.60;;;;;;;16.36;75.46;100843.59;6307133;22;20034;-59
2022/09/10 01:11:53;;;;;;;8.23;4.30;;;;;;;16.35;75.83;100844.72;6306952;22;20007;-58
2022/09/10 01:14:42;;;;;;;15.77;5.07;;;;;;;16.38;75.77;100846.91;6304139;22;20487;-58
2022/09/10 01:17:34;;;;;;;11.05;4.72;;;;;;;16.39;75.72;100840.22;6307688;22;20004;-58
2022/09/10 01:20:14;;;;;;;8.40;4.80;;;;;;;16.34;76.00;100848.63;6305377;22;20014;-58
2022/09/10 01:23:17;;;;;;;10.70;5.68;;;;;;;16.42;75.61;100838.78;6307617;22;20017;-58
2022/09/10 01:25:52;;;;;;;13.30;5.30;;;;;;;16.40;76.01;100841.03;6306676;22;20007;-58
2022/09/10 01:28:30;;;;;;;11.07;4.90;;;;;;;16.36;76.20;100846.41;6305202;22;20077;-58
2022/09/10 01:31:05;;;;;;;9.60;5.03;;;;;;;16.35;76.49;100844.72;6306961;22;20007;-58
2022/09/10 01:33:41;;;;;;;9.27;4.93;;;;;;;16.35;76.27;100839.13;6304846;22;20013;-58
2022/09/10 01:36:13;;;;;;;11.27;5.07;;;;;;;16.37;76.37;100845.25;6307234;22;20003;-58
2022/09/10 01:38:40;;;;;;;11.27;5.50;;;;;;;16.33;76.60;100834.94;6307109;22;20505;-58
2022/09/10 01:41:07;;;;;;;12.18;5.70;;;;;;;16.35;76.79;100849.50;6305315;22;20038;-57
2022/09/10 01:43:33;;;;;;;11.73;6.35;;;;;;;16.32;76.84;100844.47;6305760;22;20482;-57
2022/09/10 01:46:24;;;;;;;11.80;5.45;;;;;;;16.30;77.26;100849.50;6307951;22;19999;-58
2022/09/10 01:49:02;;;;;;;10.43;5.70;;;;;;;16.33;76.89;100855.38;6305096;22;20050;-58
2022/09/10 01:51:37;;;;;;;10.80;6.25;;;;;;;16.32;77.03;100841.66;6305254;22;20061;-58
2022/09/10 01:54:24;;;;;;;10.25;5.20;;;;;;;16.37;77.03;100842.44;6307925;22;20057;-58
2022/09/10 01:56:58;;;;;;;13.48;6.28;;;;;;;16.39;76.96;100842.19;6307371;22;20082;-58
2022/09/10 01:59:56;;;;;;;13.07;6.15;;;;;;;16.42;76.64;100830.38;6305058;22;20054;-57
2022/09/10 02:02:40;;;;;;;13.10;5.97;;;;;;;16.41;76.98;100837.94;6305974;22;20018;-58
2022/09/10 02:05:07;;;;;;;13.70;6.18;;;;;;;16.36;77.44;100838.00;6306292;22;20018;-58
2022/09/10 02:07:35;;;;;;;11.02;6.07;;;;;;;16.37;77.27;100838.81;6307485;22;19995;-58
2022/09/10 02:10:02;;;;;;;10.90;5.97;;;;;;;16.40;77.30;100835.44;6304595;22;20326;-57
2022/09/10 02:12:27;;;;;;;10.95;6.43;;;;;;;16.36;77.60;100835.19;6306513;22;20079;-58
2022/09/10 02:14:55;;;;;;;16.15;6.45;;;;;;;16.36;77.83;100835.19;6306423;22;20089;-58
2022/09/10 02:17:25;;;;;;;10.63;6.20;;;;;;;16.38;77.70;100835.72;6305828;22;20011;-57
2022/09/10 02:19:51;;;;;;;12.48;6.35;;;;;;;16.34;78.07;100829.03;6306750;22;20427;-58
2022/09/10 02:22:17;;;;;;;13.00;6.65;;;;;;;16.39;77.81;100823.41;6306808;22;20014;-58
2022/09/10 02:24:45;;;;;;;14.18;6.85;;;;;;;16.38;77.83;100821.72;6304823;22;20085;-58
2022/09/10 02:27:11;;;;;;;9.63;6.15;;;;;;;16.39;77.39;100825.38;6306442;22;20491;-57
2022/09/10 02:29:38;;;;;;;13.38;6.43;;;;;;;16.41;77.89;100823.94;6304600;22;20011;-58
2022/09/10 02:32:05;;;;;;;11.25;6.43;;;;;;;16.40;78.17;100819.47;6306893;22;20003;-57
2022/09/10 02:34:31;;;;;;;15.88;6.45;;;;;;;16.34;78.02;100819.78;6306438;22;20011;-58
2022/09/10 02:36:57;;;;;;;13.02;6.55;;;;;;;16.35;78.34;100815.88;6305193;22;20007;-58
2022/09/10 02:39:23;;;;;;;18.98;6.82;;;;;;;16.36;78.29;100817.53;6304859;22;20010;-59
2022/09/10 02:41:48;;;;;;;13.13;6.97;;;;;;;16.37;78.27;100825.66;6306559;22;20023;-58
2022/09/10 02:44:13;;;;;;;12.85;6.53;;;;;;;16.35;78.43;100819.50;6305063;22;20008;-58
2022/09/10 02:46:39;;;;;;;11.85;6.68;;;;;;;16.40;78.26;100819.47;6304793;22;20105;-59
2022/09/10 02:49:05;;;;;;;9.82;6.70;;;;;;;16.36;78.37;100814.75;6306334;22;20035;-58
2022/09/10 02:51:30;;;;;;;11.55;6.80;;;;;;;16.39;78.36;100823.41;6303975;22;20069;-58
2022/09/10 02:53:55;;;;;;;12.43;6.53;;;;;;;16.34;78.68;100817.81;6306235;22;19999;-58
2022/09/10 02:56:21;;;;;;;13.55;6.50;;;;;;;16.33;78.61;100824.56;6304953;22;20000;-58
2022/09/10 02:58:47;;;;;;;11.65;7.18;;;;;;;16.34;78.72;100825.41;6304652;22;20003;-58
2022/09/10 03:01:17;;;;;;;9.95;6.72;;;;;;;16.31;78.96;100815.63;6305616;22;20006;-58
2022/09/10 03:03:47;;;;;;;11.70;6.82;;;;;;;16.31;78.67;100821.22;6306023;22;20003;-58
2022/09/10 03:06:12;;;;;;;14.45;7.03;;;;;;;16.34;78.87;100814.19;6305124;22;20071;-58
2022/09/10 03:08:38;;;;;;;12.13;6.90;;;;;;;16.32;79.02;100819.25;6305785;22;20755;-58
2022/09/10 03:11:04;;;;;;;11.38;6.90;;;;;;;16.32;78.98;100822.91;6304059;22;20018;-58
2022/09/10 03:13:29;;;;;;;12.50;6.78;;;;;;;16.33;79.02;100818.97;6305076;22;20010;-58
2022/09/10 03:15:54;;;;;;;10.52;6.05;;;;;;;16.37;78.85;100822.84;6304483;22;20003;-58
2022/09/10 03:18:21;;;;;;;13.88;7.07;;;;;;;16.35;79.20;100827.91;6305619;22;20428;-58
2022/09/10 03:20:48;;;;;;;14.75;6.80;;;;;;;16.33;79.36;100818.97;6303239;22;20701;-58
2022/09/10 03:23:13;;;;;;;11.88;7.63;;;;;;;16.34;79.33;100822.59;6305205;22;20011;-58
2022/09/10 03:25:39;;;;;;;12.43;7.03;;;;;;;16.33;79.33;100830.16;6304319;22;20003;-58
2022/09/10 03:28:04;;;;;;;11.23;7.15;;;;;;;16.29;79.48;100817.88;6305052;22;20003;-58
2022/09/10 03:30:29;;;;;;;13.82;7.25;;;;;;;16.35;79.36;100822.31;6305334;22;20018;-58
2022/09/10 03:32:56;;;;;;;15.25;8.35;;;;;;;16.32;79.64;100820.09;6304808;22;20010;-58
2022/09/10 03:35:21;;;;;;;11.55;8.07;;;;;;;16.34;79.43;100820.63;6303645;22;20064;-59
2022/09/10 03:37:47;;;;;;;15.40;7.82;;;;;;;16.34;79.43;100828.19;6305376;22;20090;-58
2022/09/10 03:40:14;;;;;;;17.10;8.43;;;;;;;16.36;79.47;100823.16;6304738;22;20007;-58
2022/09/10 03:42:40;;;;;;;17.15;8.60;;;;;;;16.30;79.72;100821.50;6305813;22;20121;-58
2022/09/10 03:45:06;;;;;;;15.77;8.35;;;;;;;16.33;79.52;100818.13;6305893;22;20027;-58
2022/09/10 03:47:31;;;;;;;15.80;8.85;;;;;;;16.33;79.63;100816.16;6304626;22;20018;-58
2022/09/10 03:49:58;;;;;;;10.82;8.95;;;;;;;16.37;79.46;100813.59;6306261;22;20026;-58
2022/09/10 03:52:25;;;;;;;14.13;8.98;;;;;;;16.34;79.51;100809.41;6305016;22;20003;-58
2022/09/10 03:54:50;;;;;;;12.95;9.18;;;;;;;16.36;79.63;100817.53;6305391;22;20625;-58
2022/09/10 03:57:16;;;;;;;15.05;8.90;;;;;;;16.32;79.59;100816.47;6305694;22;20007;-58
2022/09/10 03:59:41;;;;;;;14.25;9.50;;;;;;;16.34;79.54;100815.03;6306136;22;20003;-58
2022/09/10 04:02:08;;;;;;;14.20;9.75;;;;;;;16.31;79.89;100812.84;6305889;22;20000;-59
2022/09/10 04:04:35;;;;;;;17.95;9.75;;;;;;;16.31;79.76;100804.44;6305975;22;20006;-58
2022/09/10 04:07:00;;;;;;;13.02;9.95;;;;;;;16.31;79.96;100811.97;6306046;22;20003;-58
2022/09/10 04:09:26;;;;;;;15.18;9.35;;;;;;;16.31;79.79;100798.81;6305171;22;20011;-58
2022/09/10 04:11:52;;;;;;;16.65;9.82;;;;;;;16.30;79.75;100794.31;6305848;22;20019;-58
2022/09/10 04:14:18;;;;;;;14.23;9.85;;;;;;;16.32;80.19;100791.25;6304688;22;20003;-58
2022/09/10 04:16:43;;;;;;;17.48;10.38;;;;;;;16.30;80.07;100808.34;6305220;22;19999;-58
2022/09/10 04:19:09;;;;;;;15.88;10.15;;;;;;;16.24;80.15;100800.28;6305814;22;20328;-58
2022/09/10 04:21:34;;;;;;;18.05;9.93;;;;;;;16.27;80.09;100796.88;6306090;22;20035;-58
2022/09/10 04:23:59;;;;;;;15.60;9.43;;;;;;;16.30;79.80;100805.53;6304585;22;20038;-60
2022/09/10 04:26:25;;;;;;;14.93;9.80;;;;;;;16.28;80.08;100804.16;6305786;22;20045;-58
2022/09/10 04:28:51;;;;;;;12.82;8.80;;;;;;;16.30;79.53;100799.94;6305313;22;20004;-57
2022/09/10 04:31:16;;;;;;;15.52;9.70;;;;;;;16.28;80.06;100799.41;6304168;22;20003;-59
2022/09/10 04:33:42;;;;;;;15.95;10.13;;;;;;;16.30;80.11;100791.53;6305815;22;19999;-58
2022/09/10 04:36:07;;;;;;;13.32;10.40;;;;;;;16.30;79.99;100796.28;6304779;22;20003;-59
2022/09/10 04:38:35;;;;;;;17.15;10.23;;;;;;;16.31;80.10;100796.03;6307111;22;19999;-59
2022/09/10 04:41:00;;;;;;;15.40;9.43;;;;;;;16.35;79.81;100802.72;6306195;22;20007;-59
2022/09/10 04:43:26;;;;;;;14.52;9.52;;;;;;;16.32;79.99;100796.84;6305284;22;19999;-60
2022/09/10 04:45:54;;;;;;;17.48;11.25;;;;;;;16.32;80.06;100799.66;6305932;22;20038;-58
2022/09/10 04:48:20;;;;;;;16.98;10.15;;;;;;;16.34;79.84;100798.22;6306616;22;20724;-59
2022/09/10 04:50:45;;;;;;;16.40;10.20;;;;;;;16.30;80.02;100802.72;6305150;22;20031;-58
2022/09/10 04:53:11;;;;;;;13.30;10.00;;;;;;;16.29;80.06;100812.28;6307035;22;20058;-58
2022/09/10 04:55:39;;;;;;;13.63;9.43;;;;;;;16.33;79.58;100806.91;6306107;22;20074;-58
2022/09/10 04:58:04;;;;;;;17.10;10.65;;;;;;;16.34;79.82;100815.03;6305287;22;19999;-58
2022/09/10 05:00:31;;;;;;;14.25;10.35;;;;;;;16.39;79.53;100808.56;6304930;22;20382;-58
2022/09/10 05:02:56;;;;;;;13.95;10.55;;;;;;;16.36;79.83;100811.94;6306403;22;20082;-58
2022/09/10 05:05:24;;;;;;;14.10;9.93;;;;;;;16.36;79.80;100814.75;6305177;22;20090;-58
2022/09/10 05:07:50;;;;;;;16.63;10.73;;;;;;;16.36;79.86;100806.34;6307030;22;20003;-58
2022/09/10 05:10:20;;;;;;;17.35;10.63;;;;;;;16.36;79.85;100807.19;6306005;22;20003;-58
2022/09/10 05:12:46;;;;;;;12.48;10.63;;;;;;;16.30;80.26;100807.50;6304828;22;20092;-58
2022/09/10 05:15:12;;;;;;;15.30;10.77;;;;;;;16.28;80.16;100805.00;6306692;22;19999;-59
2022/09/10 05:17:37;;;;;;;14.70;10.38;;;;;;;16.32;80.03;100806.09;6306497;22;20019;-59
2022/09/10 05:20:04;;;;;;;19.75;11.02;;;;;;;16.30;80.48;100807.50;6305501;22;20023;-58
2022/09/10 05:22:30;;;;;;;16.85;11.02;;;;;;;16.34;80.09;100805.78;6306612;22;21084;-58
2022/09/10 05:24:55;;;;;;;16.63;11.20;;;;;;;16.35;79.69;100811.13;6305717;22;20011;-58
2022/09/10 05:27:20;;;;;;;18.63;12.25;;;;;;;16.32;80.22;100813.66;6303062;22;20094;-58
2022/09/10 05:29:45;;;;;;;17.88;12.18;;;;;;;16.33;80.58;100812.53;6305424;22;20007;-58
2022/09/10 05:32:12;;;;;;;20.10;12.38;;;;;;;16.31;80.48;100803.56;6305662;22;20003;-58
2022/09/10 05:34:38;;;;;;;17.75;12.40;;;;;;;16.29;80.73;100806.66;6306116;22;20069;-58
2022/09/10 05:37:04;;;;;;;19.95;13.25;;;;;;;16.33;80.40;100810.56;6306387;22;20057;-58
2022/09/10 05:39:30;;;;;;;17.65;13.05;;;;;;;16.37;80.28;100810.81;6305133;22;20053;-58
2022/09/10 05:41:56;;;;;;;21.08;13.93;;;;;;;16.37;80.37;100816.41;6306679;22;20435;-58
2022/09/10 05:44:24;;;;;;;18.40;13.15;;;;;;;16.32;80.54;100806.09;6305755;22;20074;-58
2022/09/10 05:46:49;;;;;;;16.60;14.02;;;;;;;16.33;80.55;100810.56;6305778;22;20412;-58
2022/09/10 05:49:15;;;;;;;17.58;14.38;;;;;;;16.34;80.28;100806.63;6304279;22;20014;-58
2022/09/10 05:51:40;;;;;;;18.50;14.10;;;;;;;16.38;80.22;100812.47;6306206;22;20737;-58
2022/09/10 05:54:07;;;;;;;20.17;13.02;;;;;;;16.38;80.19;100812.47;6305206;22;20006;-58
2022/09/10 05:56:33;;;;;;;16.02;14.10;;;;;;;16.41;80.52;100814.69;6306456;22;20045;-59
2022/09/10 05:58:59;;;;;;;17.65;13.05;;;;;;;16.42;80.30;100808.78;6306365;22;20022;-59
2022/09/10 06:01:24;;;;;;;19.98;14.88;;;;;;;16.39;80.83;100817.81;6305204;22;20439;-56
2022/09/10 06:03:49;;;;;;;17.80;13.57;;;;;;;16.40;80.66;100818.63;6306917;22;20007;-57
2022/09/10 06:06:15;;;;;;;19.35;13.52;;;;;;;16.43;80.19;100810.47;6306286;22;20078;-58
2022/09/10 06:08:41;;;;;;;16.60;13.23;;;;;;;16.43;80.43;100812.44;6304470;22;20003;-59
2022/09/10 06:11:09;;;;;;;15.15;13.27;;;;;;;16.43;80.49;100815.25;6305436;22;20011;-59
2022/09/10 06:13:37;;;;;;;15.90;13.85;;;;;;;16.39;80.40;100815.00;6305781;22;20010;-60
2022/09/10 06:16:03;;;;;;;14.60;13.13;;;;;;;16.45;80.68;100815.78;6304645;22;20003;-59
2022/09/10 06:18:30;;;;;;;16.67;13.35;;;;;;;16.43;80.59;100816.09;6306498;22;20014;-59
2022/09/10 06:21:14;;;;;;;16.48;14.13;;;;;;;16.43;80.66;100821.69;6306199;22;20003;-59
2022/09/10 06:23:39;;;;;;;15.18;13.65;;;;;;;16.42;80.63;100822.78;6305382;22;19999;-59
2022/09/10 06:26:17;;;;;;;19.63;15.90;;;;;;;16.36;81.08;100820.34;6305117;22;20380;-59
2022/09/10 06:28:43;;;;;;;16.67;14.93;;;;;;;16.38;81.14;100820.88;6305163;22;20331;-59
2022/09/10 06:31:13;;;;;;;18.58;13.90;;;;;;;16.41;80.72;100821.13;6305709;22;20010;-59
2022/09/10 06:33:38;;;;;;;18.92;15.52;;;;;;;16.35;81.43;100827.09;6305636;22;20046;-59
2022/09/10 06:36:08;;;;;;;19.02;15.40;;;;;;;16.37;81.09;100822.00;6305228;22;20407;-58
2022/09/10 06:38:36;;;;;;;17.38;15.02;;;;;;;16.39;80.91;100831.81;6305389;22;20370;-59
2022/09/10 06:41:04;;;;;;;18.50;16.27;;;;;;;16.37;81.17;100833.22;6305462;22;20420;-59
2022/09/10 06:43:35;;;;;;;18.63;15.85;;;;;;;16.40;81.12;100833.47;6302494;22;20089;-58
2022/09/10 06:46:08;;;;;;;17.38;15.57;;;;;;;16.42;81.15;100839.59;6303922;22;19999;-58
2022/09/10 06:48:38;;;;;;;17.20;14.75;;;;;;;16.43;81.46;100835.69;6304953;22;20027;-59
2022/09/10 06:51:03;;;;;;;16.75;15.07;;;;;;;16.48;80.86;100832.00;6305275;22;20062;-58
2022/09/10 06:53:32;;;;;;;17.60;15.77;;;;;;;16.46;81.11;100837.06;6305657;22;19999;-58
2022/09/10 06:55:59;;;;;;;18.65;16.27;;;;;;;16.44;81.21;100840.16;6305057;22;20594;-57
2022/09/10 06:58:24;;;;;;;17.13;15.30;;;;;;;16.49;80.65;100838.44;6303876;22;20057;-58
2022/09/10 07:00:51;;;;;;;19.40;16.27;;;;;;;16.48;80.18;100833.97;6302861;22;20003;-58
2022/09/10 07:03:18;;;;;;;18.13;16.33;;;;;;;16.53;80.76;100840.38;6303270;22;20439;-60
2022/09/10 07:05:47;;;;;;;18.85;16.85;;;;;;;16.53;80.72;100831.13;6302087;22;20033;-59
2022/09/10 07:08:14;;;;;;;18.08;16.08;;;;;;;16.49;81.17;100844.03;6304477;22;20841;-59
2022/09/10 07:10:41;;;;;;;19.02;17.10;;;;;;;16.43;81.58;100835.69;6303799;22;20056;-59
2022/09/10 07:13:07;;;;;;;16.92;15.25;;;;;;;16.43;81.33;100841.28;6305366;22;20007;-59
2022/09/10 07:15:33;;;;;;;18.55;15.27;;;;;;;16.43;81.59;100848.88;6304057;22;20030;-59
2022/09/10 07:17:59;;;;;;;17.83;14.18;;;;;;;16.53;80.91;100845.13;6304060;22;20035;-60
2022/09/10 07:20:26;;;;;;;9.60;7.40;;;;;;;16.78;79.13;100850.56;6307018;22;20007;-58
2022/09/10 07:22:52;;;;;;;14.73;13.23;;;;;;;16.74;80.12;100848.59;6305849;22;20087;-59
2022/09/10 07:25:18;;;;;;;13.98;12.43;;;;;;;16.70;80.07;100848.31;6305101;22;20010;-59
2022/09/10 07:27:43;;;;;;;15.63;13.13;;;;;;;16.68;80.51;100856.22;6305378;22;20003;-59
2022/09/10 07:30:09;;;;;;;15.02;13.48;;;;;;;16.63;80.52;100856.25;6304529;22;20072;-60
2022/09/10 07:32:35;;;;;;;15.13;13.00;;;;;;;16.61;80.54;100850.09;6305973;22;20007;-59
2022/09/10 07:35:00;;;;;;;14.40;13.00;;;;;;;16.62;80.00;100854.56;6305635;22;20011;-59
2022/09/10 07:37:25;;;;;;;13.77;12.48;;;;;;;16.61;80.15;100864.13;6304439;22;20327;-59
2022/09/10 07:39:50;;;;;;;15.77;14.27;;;;;;;16.56;80.87;100867.81;6303889;22;20007;-59
2022/09/10 07:42:16;;;;;;;15.20;13.80;;;;;;;16.52;80.68;100863.09;6303906;22;20034;-59
2022/09/10 07:44:41;;;;;;;17.25;15.63;;;;;;;16.55;81.27;100859.69;6304102;22;20026;-59
2022/09/10 07:47:07;;;;;;;17.80;14.15;;;;;;;16.59;81.48;100866.38;6304220;22;20078;-59
2022/09/10 07:49:32;;;;;;;16.33;13.68;;;;;;;16.62;81.15;100858.25;6304611;22;20011;-59
2022/09/10 07:51:58;;;;;;;16.45;14.75;;;;;;;16.62;81.60;100868.59;6303123;22;20086;-59
2022/09/10 07:54:23;;;;;;;16.50;14.85;;;;;;;16.61;81.85;100864.13;6305280;22;20078;-58
2022/09/10 07:56:49;;;;;;;16.67;14.88;;;;;;;16.61;81.86;100864.94;6305292;22;20361;-59
2022/09/10 07:59:15;;;;;;;16.23;14.63;;;;;;;16.62;82.02;100865.78;6305758;22;20404;-59
2022/09/10 08:01:41;;;;;;;17.48;15.77;;;;;;;16.62;81.96;100871.38;6301741;22;20455;-58
2022/09/10 08:04:06;;;;;;;18.00;16.17;;;;;;;16.65;81.98;100871.63;6305892;22;19999;-59
2022/09/10 08:06:32;;;;;;;18.08;16.23;;;;;;;16.60;82.07;100885.69;6304703;22;20010;-59
2022/09/10 08:08:58;;;;;;;14.23;12.85;;;;;;;16.64;81.23;100892.41;6302360;22;20013;-59
2022/09/10 08:11:25;;;;;;;18.65;16.67;;;;;;;16.65;82.23;100887.63;6303427;22;20004;-59
2022/09/10 08:13:52;;;;;;;18.65;16.90;;;;;;;16.71;81.99;100894.03;6305023;22;20007;-59
2022/09/10 08:16:22;;;;;;;18.38;16.48;;;;;;;16.74;82.14;100893.47;6304201;22;20006;-60
2022/09/10 08:18:48;;;;;;;17.95;16.15;;;;;;;16.75;82.11;100890.38;6305896;22;20392;-59
2022/09/10 08:21:15;;;;;;;17.73;16.02;;;;;;;16.74;82.41;100901.88;6305822;22;19995;-59
2022/09/10 08:23:40;;;;;;;19.73;17.92;;;;;;;16.69;82.45;100891.50;6304820;22;20416;-60
2022/09/10 08:26:06;;;;;;;18.80;16.88;;;;;;;16.73;82.13;100905.78;6307489;22;19999;-60
2022/09/10 08:28:33;;;;;;;19.25;17.27;;;;;;;16.74;82.12;100908.34;6304737;22;19995;-59
2022/09/10 08:31:06;;;;;;;18.98;17.17;;;;;;;16.78;82.51;100914.16;6305602;22;20019;-60
2022/09/10 08:33:32;;;;;;;19.45;17.48;;;;;;;16.81;82.44;100914.41;6306351;22;20053;-58
2022/09/10 08:35:58;;;;;;;18.52;16.63;;;;;;;16.86;82.26;100917.19;6307017;22;20003;-60
2022/09/10 08:38:28;;;;;;;19.25;17.35;;;;;;;16.90;82.37;100917.44;6305656;22;20510;-59
2022/09/10 08:40:55;;;;;;;19.05;17.10;;;;;;;16.91;82.75;100919.13;6308097;22;20003;-59
2022/09/10 08:43:37;;;;;;;17.00;15.27;;;;;;;16.93;82.79;100928.88;6305710;22;20003;-59
2022/09/10 08:46:09;;;;;;;15.70;14.18;;;;;;;16.92;82.38;100929.19;6308134;22;19999;-59
2022/09/10 08:48:38;;;;;;;17.50;15.68;;;;;;;16.89;83.02;100936.22;6305996;22;20014;-59
2022/09/10 08:51:26;;;;;;;15.15;13.75;;;;;;;16.93;82.88;100937.28;6306535;22;20010;-59
2022/09/10 08:54:01;;;;;;;15.13;13.82;;;;;;;16.95;82.42;100936.19;6307601;22;20304;-59
2022/09/10 08:56:26;;;;;;;14.40;13.02;;;;;;;16.96;82.04;100937.84;6306648;22;20010;-59
2022/09/10 08:59:12;;;;;;;15.90;13.35;;;;;;;16.91;82.24;100941.53;6306989;22;19999;-59
2022/09/10 09:01:48;;;;;;;15.55;13.07;;;;;;;16.95;82.53;100941.78;6304962;22;20060;-59
2022/09/10 09:04:31;;;;;;;14.10;12.73;;;;;;;16.96;82.02;100951.88;6306074;22;19999;-59
2022/09/10 09:07:02;;;;;;;14.13;12.68;;;;;;;16.92;82.74;100954.41;6305199;22;20428;-59
2022/09/10 09:09:27;;;;;;;13.98;12.63;;;;;;;16.93;82.69;100939.25;6304020;22;20003;-59
2022/09/10 09:12:14;;;;;;;16.38;12.80;;;;;;;16.96;82.60;100949.91;6304277;22;20030;-59
2022/09/10 09:14:51;;;;;;;14.98;12.85;;;;;;;16.96;82.53;100944.28;6304958;22;20438;-60
2022/09/10 09:17:32;;;;;;;14.73;12.18;;;;;;;16.95;82.35;100950.22;6305961;22;20021;-59
2022/09/10 09:20:25;;;;;;;14.07;12.60;;;;;;;16.96;82.70;100955.50;6304653;22;20034;-60
2022/09/10 09:23:14;;;;;;;16.20;14.52;;;;;;;16.93;82.99;100950.47;6304611;22;19999;-60
2022/09/10 09:25:53;;;;;;;14.88;12.25;;;;;;;16.98;82.87;100949.59;6256132;22;20038;-59
2022/09/10 09:28:37;;;;;;;15.70;13.80;;;;;;;17.01;82.65;100954.63;6305305;22;20003;-59
2022/09/10 09:31:11;;;;;;;20.38;14.32;;;;;;;17.00;83.49;100956.59;6305423;22;20015;-61
2022/09/10 09:33:37;;;;;;;16.65;14.95;;;;;;;17.03;83.69;100956.00;6305055;22;20086;-60
2022/09/10 09:36:04;;;;;;;17.73;13.18;;;;;;;17.06;83.30;100961.03;6305833;22;19995;-59
2022/09/10 09:38:50;;;;;;;15.75;14.15;;;;;;;17.09;83.59;100963.22;6302451;22;20008;-59
2022/09/10 09:41:38;;;;;;;17.88;14.82;;;;;;;17.14;82.49;100962.38;6305037;22;20003;-59
2022/09/10 09:44:34;;;;;;;17.45;15.73;;;;;;;17.15;83.42;100959.25;6303230;22;20070;-58
2022/09/10 09:46:59;;;;;;;16.25;14.63;;;;;;;17.16;84.02;100960.94;6302549;22;20057;-58
2022/09/10 09:49:25;;;;;;;16.85;15.13;;;;;;;17.16;84.14;100957.28;6303433;22;20019;-59
2022/09/10 09:51:51;;;;;;;16.02;14.38;;;;;;;17.18;83.75;100958.69;6303943;22;20019;-59
2022/09/10 09:54:25;;;;;;;18.35;14.98;;;;;;;17.18;84.23;100963.47;6305073;22;20019;-59
2022/09/10 09:56:53;;;;;;;16.33;14.63;;;;;;;17.20;84.03;100961.19;6303920;22;20015;-59
2022/09/10 09:59:30;;;;;;;17.33;14.40;;;;;;;17.19;84.29;100959.50;6304607;22;20003;-59
2022/09/10 10:02:21;;;;;;;14.63;13.23;;;;;;;17.23;83.88;100965.38;6304386;22;20011;-59
2022/09/10 10:04:55;;;;;;;16.75;14.95;;;;;;;17.21;84.60;100950.78;6302361;22;20003;-60
2022/09/10 10:07:25;;;;;;;14.85;13.10;;;;;;;17.25;84.18;100946.25;6304386;22;20049;-59
2022/09/10 10:09:51;;;;;;;13.93;12.48;;;;;;;17.26;84.17;100954.41;6305547;22;20003;-59
2022/09/10 10:12:20;;;;;;;16.02;13.68;;;;;;;17.28;84.73;100956.91;6303543;22;20516;-59
2022/09/10 10:14:46;;;;;;;17.98;14.02;;;;;;;17.32;85.15;100967.22;6304121;22;20133;-59
2022/09/10 10:17:24;;;;;;;14.40;12.88;;;;;;;17.36;84.48;100982.34;6302180;22;20433;-59
2022/09/10 10:20:00;;;;;;;17.35;13.35;;;;;;;17.39;84.06;100981.75;6302302;22;20013;-58
2022/09/10 10:22:26;;;;;;;19.10;13.95;;;;;;;17.41;85.13;100984.28;6302889;22;20007;-59
2022/09/10 10:24:53;;;;;;;15.43;13.02;;;;;;;17.43;84.20;100971.59;6304960;22;20007;-58
2022/09/10 10:27:41;;;;;;;13.80;11.88;;;;;;;17.49;83.53;100977.16;6305113;22;20327;-59
2022/09/10 10:30:22;;;;;;;13.20;11.95;;;;;;;17.51;84.03;100984.16;6304979;22;20007;-58
2022/09/10 10:32:50;;;;;;;15.80;13.45;;;;;;;17.52;84.31;100968.16;6304678;22;20010;-59
2022/09/10 10:35:18;;;;;;;15.55;14.13;;;;;;;17.53;84.42;100973.50;6303152;22;20423;-59
2022/09/10 10:38:26;;;;;;;14.23;12.75;;;;;;;17.58;83.76;100981.84;6303616;22;20086;-59
2022/09/10 10:41:29;;;;;;;13.48;12.07;;;;;;;17.56;83.47;100980.47;6230298;22;20014;-59
2022/09/10 10:44:27;;;;;;;15.23;13.43;;;;;;;17.55;83.79;100990.03;6303506;22;20043;-59
2022/09/10 10:47:23;;;;;;;13.98;12.57;;;;;;;17.54;84.04;100986.38;6303540;22;20034;-58
2022/09/10 10:50:02;;;;;;;12.15;9.25;;;;;;;17.55;82.94;100987.22;6302839;22;20141;-58
2022/09/10 10:52:50;;;;;;;10.98;9.50;;;;;;;17.57;83.21;101001.81;6305059;22;20382;-59
2022/09/10 10:55:52;;;;;;;14.90;10.18;;;;;;;17.56;83.19;100991.69;6304061;22;20479;-58
2022/09/10 10:58:41;;;;;;;10.98;9.20;;;;;;;17.58;83.60;100995.03;6304515;22;20081;-58
2022/09/10 11:01:17;;;;;;;10.55;8.80;;;;;;;17.56;84.09;100997.28;6301438;22;20415;-58
2022/09/10 11:03:50;;;;;;;7.18;6.47;;;;;;;17.80;83.41;100998.22;6303526;22;19999;-58
2022/09/10 11:06:22;;;;;;;10.43;7.00;;;;;;;17.98;82.74;100984.50;6303601;22;20006;-60
2022/09/10 11:08:54;;;;;;;8.48;6.43;;;;;;;18.12;82.30;100991.09;6304600;22;20117;-58
2022/09/10 11:11:25;;;;;;;8.45;5.32;;;;;;;18.29;81.30;100993.38;6304141;22;20386;-58
2022/09/10 11:13:56;;;;;;;11.65;5.88;;;;;;;18.40;80.90;100984.50;6304318;22;20003;-58
2022/09/10 11:16:31;;;;;;;7.20;4.78;;;;;;;18.49;80.29;101001.53;6302422;22;20011;-58
2022/09/10 11:19:24;;;;;;;8.20;5.25;;;;;;;18.48;80.19;101001.84;6302910;22;20080;-59
2022/09/10 11:21:57;;;;;;;7.05;5.57;;;;;;;18.52;79.92;101008.53;6304177;22;20007;-59
2022/09/10 11:24:28;;;;;;;9.25;4.97;;;;;;;18.64;79.50;101006.09;6301761;22;20010;-59
2022/09/10 11:27:22;;;;;;;9.35;4.95;;;;;;;18.68;79.15;101001.53;6304846;22;20003;-58